createdAt,value
2018-05-23T00:01:34.132Z,87.80
2018-05-23T00:04:03.450Z,87.90
2018-05-23T00:06:31.590Z,87.60
2018-05-23T00:09:00.510Z,88.20
2018-05-23T00:11:28.658Z,88.10
2018-05-23T00:13:57.624Z,88.20
2018-05-23T00:16:25.748Z,88.10
2018-05-23T00:18:54.382Z,88.20
2018-05-23T00:21:22.515Z,88.20
2018-05-23T00:23:50.681Z,88.20
2018-05-23T00:26:18.829Z,88.70
2018-05-23T00:28:47.736Z,88.40
2018-05-23T00:31:15.855Z,88.40
2018-05-23T00:33:45.402Z,87.50
2018-05-23T00:36:14.386Z,87.70
2018-05-23T00:38:42.549Z,87.70
2018-05-23T00:41:10.667Z,87.10
2018-05-23T00:43:40.158Z,88.60
2018-05-23T00:46:08.284Z,88.60
2018-05-23T00:48:36.434Z,89.20
2018-05-23T00:51:04.576Z,89.10
2018-05-23T00:53:33.496Z,89.80
2018-05-23T00:56:01.629Z,89.80
2018-05-23T00:58:29.945Z,90.00
2018-05-23T01:00:58.069Z,89.90
2018-05-23T01:03:26.713Z,90.00
2018-05-23T01:05:56.682Z,88.80
2018-05-23T01:08:25.605Z,88.70
2018-05-23T01:10:53.742Z,88.70
2018-05-23T01:13:22.647Z,88.90
2018-05-23T01:15:51.833Z,89.60
2018-05-23T01:18:20.731Z,90.10
2018-05-23T01:20:49.694Z,90.20
2018-05-23T01:23:17.858Z,90.20
2018-05-23T01:25:46.023Z,90.30
2018-05-23T01:28:14.989Z,90.20
2018-05-23T01:30:43.116Z,90.10
2018-05-23T01:33:11.281Z,89.90
2018-05-23T01:35:40.514Z,89.70
2018-05-23T01:38:12.380Z,89.50
2018-05-23T01:40:41.391Z,89.40
2018-05-23T01:43:09.541Z,89.00
2018-05-23T01:45:37.709Z,89.50
2018-05-23T01:48:06.613Z,89.90
2018-05-23T01:50:34.754Z,89.80
2018-05-23T01:53:02.920Z,89.70
2018-05-23T01:55:31.066Z,89.60
2018-05-23T01:57:59.281Z,89.60
2018-05-23T02:00:27.437Z,90.00
2018-05-23T02:02:56.772Z,90.00
2018-05-23T02:05:25.700Z,90.20
2018-05-23T02:07:53.873Z,90.10
2018-05-23T02:10:22.011Z,90.20
2018-05-23T02:12:50.900Z,89.40
2018-05-23T02:15:19.825Z,90.10
2018-05-23T02:17:47.935Z,90.00
2018-05-23T02:20:16.088Z,90.20
2018-05-23T02:22:44.224Z,90.50
2018-05-23T02:25:13.137Z,90.50
2018-05-23T02:27:41.708Z,90.50
2018-05-23T02:30:10.183Z,90.30
2018-05-23T02:32:38.325Z,90.30
2018-05-23T02:35:06.948Z,90.20
2018-05-23T02:37:36.661Z,90.30
2018-05-23T02:40:07.481Z,90.20
2018-05-23T02:42:36.387Z,90.50
2018-05-23T02:45:04.541Z,90.50
2018-05-23T02:47:33.441Z,90.50
2018-05-23T02:50:02.458Z,90.80
2018-05-23T02:52:33.169Z,90.90
2018-05-23T02:55:02.081Z,91.10
2018-05-23T02:57:30.225Z,91.10
2018-05-23T02:59:59.135Z,90.80
2018-05-23T03:02:27.262Z,90.70
2018-05-23T03:04:56.026Z,90.70
2018-05-23T03:07:24.158Z,90.50
2018-05-23T03:09:52.662Z,90.60
2018-05-23T03:12:22.041Z,90.70
2018-05-23T03:14:50.963Z,90.40
2018-05-23T03:17:19.089Z,90.40
2018-05-23T03:19:47.238Z,90.60
2018-05-23T03:22:16.607Z,90.20
2018-05-23T03:24:45.804Z,90.20
2018-05-23T03:27:13.928Z,90.10
2018-05-23T03:29:42.083Z,90.10
2018-05-23T03:32:12.367Z,87.80
2018-05-23T03:34:41.251Z,88.90
2018-05-23T03:37:10.148Z,89.30
2018-05-23T03:39:38.299Z,89.30
2018-05-23T03:42:07.195Z,89.20
2018-05-23T03:44:36.112Z,88.80
2018-05-23T03:47:04.260Z,88.80
2018-05-23T03:49:32.991Z,88.70
2018-05-23T03:52:01.107Z,88.50
2018-05-23T03:54:29.766Z,89.20
2018-05-23T03:56:58.766Z,88.80
2018-05-23T03:59:38.669Z,88.30
2018-05-23T04:02:18.564Z,88.50
2018-05-23T04:04:58.653Z,88.90
2018-05-23T04:07:37.282Z,90.10
2018-05-23T04:10:05.439Z,90.20
2018-05-23T04:12:34.350Z,90.00
2018-05-23T04:15:03.265Z,90.00
2018-05-23T04:17:31.392Z,89.90
2018-05-23T04:20:01.290Z,89.30
2018-05-23T04:22:35.227Z,86.60
2018-05-23T04:25:04.085Z,86.50
2018-05-23T04:27:32.222Z,85.40
2018-05-23T04:30:00.401Z,85.40
2018-05-23T04:32:29.357Z,87.20
2018-05-23T04:34:58.276Z,87.30
2018-05-23T04:37:26.423Z,87.30
2018-05-23T04:39:55.335Z,85.40
2018-05-23T04:42:23.469Z,85.30
2018-05-23T04:44:51.631Z,83.40
2018-05-23T04:47:19.768Z,82.20
2018-05-23T04:49:47.928Z,81.80
2018-05-23T04:52:16.061Z,81.10
2018-05-23T04:54:44.225Z,80.90
2018-05-23T04:57:12.424Z,80.50
2018-05-23T04:59:46.375Z,80.60
2018-05-23T05:02:16.079Z,80.50
2018-05-23T05:04:44.241Z,80.50
2018-05-23T05:07:12.424Z,81.00
2018-05-23T05:09:40.582Z,81.00
2018-05-23T05:12:09.602Z,81.10
2018-05-23T05:14:37.943Z,81.10
2018-05-23T05:17:06.099Z,80.90
2018-05-23T05:19:34.261Z,81.10
2018-05-23T05:22:02.425Z,81.30
2018-05-23T05:24:30.555Z,81.70
2018-05-23T05:26:59.473Z,82.60
2018-05-23T05:29:34.977Z,81.90
2018-05-23T05:32:03.133Z,82.50
2018-05-23T05:34:33.916Z,81.70
2018-05-23T05:37:02.868Z,81.40
2018-05-23T05:39:30.998Z,81.40
2018-05-23T05:41:59.151Z,81.40
2018-05-23T05:44:28.350Z,81.40
2018-05-23T05:46:57.362Z,82.20
2018-05-23T05:49:25.443Z,81.40
2018-05-23T05:51:53.605Z,82.20
2018-05-23T05:54:24.544Z,81.80
2018-05-23T05:56:58.256Z,81.00
2018-05-23T05:59:43.932Z,81.00
2018-05-23T06:02:12.068Z,79.80
2018-05-23T06:04:40.194Z,79.00
2018-05-23T06:07:08.345Z,79.40
2018-05-23T06:09:37.275Z,79.60
2018-05-23T06:12:05.419Z,79.40
2018-05-23T06:14:33.549Z,79.00
2018-05-23T06:17:01.695Z,78.80
2018-05-23T06:19:29.833Z,78.60
2018-05-23T06:21:58.746Z,79.00
2018-05-23T06:24:26.881Z,78.20
2018-05-23T06:26:55.801Z,86.30
2018-05-23T06:29:23.913Z,99.90
2018-05-23T06:31:52.948Z,76.80
2018-05-23T06:34:21.853Z,75.90
2018-05-23T06:36:50.009Z,75.90
2018-05-23T06:41:48.640Z,99.90
2018-05-23T06:44:18.445Z,74.30
2018-05-23T06:46:49.260Z,74.20
2018-05-23T06:49:18.201Z,73.40
2018-05-23T06:51:46.397Z,71.40
2018-05-23T06:54:14.543Z,70.90
2018-05-23T06:56:42.692Z,70.10
2018-05-23T06:59:12.433Z,69.20
2018-05-23T07:01:41.077Z,69.10
2018-05-23T07:04:09.963Z,69.20
2018-05-23T07:06:39.699Z,68.40
2018-05-23T07:09:08.277Z,68.30
2018-05-23T07:11:38.193Z,67.70
2018-05-23T07:14:08.986Z,65.90
2018-05-23T07:16:37.157Z,66.00
2018-05-23T07:19:05.361Z,65.40
2018-05-23T07:21:34.267Z,64.20
2018-05-23T07:24:02.400Z,65.00
2018-05-23T07:26:30.556Z,63.50
2018-05-23T07:28:58.672Z,63.40
2018-05-23T07:31:27.584Z,64.60
2018-05-23T07:33:55.716Z,63.80
2018-05-23T07:36:23.866Z,62.80
2018-05-23T07:38:53.128Z,61.70
2018-05-23T07:41:21.994Z,62.30
2018-05-23T07:43:50.797Z,62.20
2018-05-23T07:46:18.957Z,61.30
2018-05-23T07:48:47.865Z,59.30
2018-05-23T07:51:16.021Z,59.20
2018-05-23T07:53:44.921Z,57.80
2018-05-23T07:56:13.819Z,56.60
2018-05-23T07:58:43.668Z,56.60
2018-05-23T20:33:03.346Z,52.80
2018-05-23T20:35:33.445Z,52.50
2018-05-23T20:38:02.464Z,52.50
2018-05-23T20:40:30.618Z,53.00
2018-05-23T20:42:58.770Z,53.80
2018-05-23T20:45:27.688Z,55.00
2018-05-23T20:47:57.378Z,55.40
2018-05-23T20:50:25.515Z,55.30
2018-05-23T20:52:54.401Z,55.00
2018-05-23T20:55:22.517Z,55.20
2018-05-23T20:57:50.680Z,56.40
2018-05-23T21:00:19.609Z,56.30
2018-05-23T21:02:47.778Z,56.30
2018-05-23T21:05:15.965Z,56.30
2018-05-23T21:07:45.469Z,56.00
2018-05-23T21:10:13.619Z,55.80
2018-05-23T21:12:42.919Z,56.20
2018-05-23T21:15:17.258Z,55.70
2018-05-23T21:17:45.407Z,55.70
2018-05-23T21:20:13.612Z,56.00
2018-05-23T21:22:41.730Z,56.30
2018-05-23T21:25:10.647Z,55.50
2018-05-23T21:27:38.933Z,55.40
2018-05-23T21:30:08.733Z,55.30
2018-05-23T21:32:37.620Z,55.70
2018-05-23T21:35:06.544Z,54.70
2018-05-23T21:37:34.671Z,54.70
2018-05-23T21:40:03.915Z,52.90
2018-05-23T21:42:32.736Z,52.30
2018-05-23T21:45:00.874Z,51.80
2018-05-23T21:47:28.978Z,51.80
2018-05-23T21:49:57.121Z,51.60
2018-05-23T21:52:25.234Z,52.90
2018-05-23T21:54:53.398Z,53.00
2018-05-23T21:57:21.509Z,52.00
2018-05-23T21:59:50.416Z,53.50
2018-05-23T22:02:18.535Z,53.50
2018-05-23T22:04:46.682Z,52.40
2018-05-23T22:07:14.819Z,53.50
2018-05-23T22:09:43.734Z,54.30
2018-05-23T22:12:11.846Z,54.30
2018-05-23T22:14:39.981Z,54.70
2018-05-23T22:17:08.825Z,54.90
2018-05-23T22:19:36.944Z,54.70
2018-05-23T22:22:05.096Z,54.70
2018-05-23T22:24:33.993Z,54.50
2018-05-23T22:27:02.160Z,54.40
2018-05-23T22:29:33.080Z,54.80
2018-05-23T22:32:01.266Z,55.20
2018-05-23T22:34:30.164Z,54.50
2018-05-23T22:36:59.083Z,53.10
2018-05-23T22:39:27.201Z,53.10
2018-05-23T22:41:55.725Z,53.70
2018-05-23T22:44:23.849Z,52.20
2018-05-23T22:46:52.001Z,52.00
2018-05-23T22:49:20.796Z,52.50
2018-05-23T22:51:48.949Z,53.30
2018-05-23T22:54:17.062Z,54.70
2018-05-23T22:56:45.195Z,54.30
2018-05-23T22:59:13.320Z,54.00
2018-05-23T23:01:45.078Z,53.40
2018-05-23T23:04:15.052Z,53.20
2018-05-23T23:06:45.161Z,53.30
2018-05-23T23:09:13.295Z,53.30
2018-05-23T23:11:42.214Z,53.60
2018-05-23T23:14:10.332Z,52.90
2018-05-23T23:16:38.480Z,53.20
2018-05-23T23:19:06.596Z,53.30
2018-05-23T23:21:34.741Z,53.70
2018-05-23T23:24:02.860Z,53.50
2018-05-23T23:26:32.281Z,53.90
2018-05-23T23:29:00.397Z,53.80
2018-05-23T23:31:28.540Z,54.00
2018-05-23T23:33:56.665Z,54.30
2018-05-23T23:36:24.800Z,54.50
2018-05-23T23:38:52.927Z,54.70
2018-05-23T23:41:21.840Z,55.20
2018-05-23T23:43:50.647Z,55.20
2018-05-23T23:46:22.408Z,55.40
2018-05-23T23:48:53.494Z,55.40
2018-05-23T23:51:21.660Z,55.80
2018-05-23T23:53:49.780Z,56.40
2018-05-23T23:56:20.510Z,56.50
2018-05-23T23:58:48.642Z,56.50
